createdAt,value
2024-05-09T00:04:19.008Z,6.9
2024-05-09T00:09:25.291Z,6.9
2024-05-09T00:14:31.589Z,6.8
2024-05-09T00:19:37.976Z,6.8
2024-05-09T00:24:44.292Z,6.9
2024-05-09T00:29:50.529Z,7
2024-05-09T00:34:56.818Z,7.1
2024-05-09T00:40:03.156Z,7.3
2024-05-09T00:45:10.005Z,7.4
2024-05-09T00:50:15.764Z,7.5
2024-05-09T00:55:22.064Z,7.6
2024-05-09T01:00:28.342Z,7.8
2024-05-09T01:05:34.672Z,7.9
2024-05-09T01:10:40.978Z,8.1
2024-05-09T01:15:47.261Z,8.3
2024-05-09T01:20:53.533Z,8.4
2024-05-09T01:25:59.830Z,8.4
2024-05-09T01:31:06.126Z,8.5
2024-05-09T01:36:12.452Z,8.5
2024-05-09T01:41:18.727Z,8.5
2024-05-09T01:46:25.044Z,8.5
2024-05-09T01:51:31.476Z,8.6
2024-05-09T01:56:37.908Z,8.6
2024-05-09T02:01:44.349Z,8.5
2024-05-09T02:06:50.810Z,8.4
2024-05-09T02:11:57.241Z,8.3
2024-05-09T02:17:03.672Z,8.2
2024-05-09T02:22:10.108Z,8.1
2024-05-09T02:27:16.547Z,8
2024-05-09T02:32:22.997Z,7.9
2024-05-09T02:42:35.872Z,7.6
2024-05-09T02:47:42.308Z,7.4
2024-05-09T02:52:48.730Z,7.2
2024-05-09T02:57:55.413Z,7
2024-05-09T03:03:02.111Z,6.9
2024-05-09T03:08:08.807Z,6.8
2024-05-09T03:13:15.532Z,6.8
2024-05-09T03:18:22.263Z,6.7
2024-05-09T03:23:28.945Z,6.7
2024-05-09T03:28:35.654Z,6.7
2024-05-09T03:33:42.368Z,6.7
2024-05-09T03:38:49.095Z,6.8
2024-05-09T03:43:55.808Z,7
2024-05-09T03:49:02.530Z,7.1
2024-05-09T03:54:09.332Z,7.2
2024-05-09T03:59:15.924Z,7.4
2024-05-09T04:04:23.266Z,7.6
2024-05-09T04:09:30.580Z,7.7
2024-05-09T04:14:37.927Z,7.8
2024-05-09T04:19:43.888Z,7.9
2024-05-09T04:24:50.147Z,7.8
2024-05-09T04:29:56.453Z,7.6
2024-05-09T04:35:02.760Z,7.5
2024-05-09T04:40:09.075Z,7.3
2024-05-09T04:45:15.386Z,7.2
2024-05-09T04:50:21.681Z,7.2
2024-05-09T04:55:27.980Z,7.1
2024-05-09T05:00:34.959Z,7.2
2024-05-09T05:05:40.622Z,7.3
2024-05-09T05:10:46.952Z,7.5
2024-05-09T05:15:53.224Z,7.7
2024-05-09T05:20:59.536Z,8
2024-05-09T05:26:05.863Z,8.2
2024-05-09T05:31:12.162Z,8.5
2024-05-09T05:36:18.469Z,8.8
2024-05-09T05:41:24.762Z,8.9
2024-05-09T05:46:31.041Z,9.1
2024-05-09T05:51:37.449Z,9.4
2024-05-09T05:56:43.659Z,9.8
2024-05-09T06:01:49.937Z,10.7
2024-05-09T06:06:56.260Z,11.1
2024-05-09T06:12:02.565Z,11.1
2024-05-09T06:17:08.902Z,11.3
2024-05-09T06:22:15.139Z,12.3
2024-05-09T06:27:21.576Z,13.1
2024-05-09T06:32:28.013Z,12.9
2024-05-09T06:37:34.437Z,13.4
2024-05-09T06:42:40.883Z,13.3
2024-05-09T06:47:47.306Z,13
2024-05-09T06:52:53.752Z,13.2
2024-05-09T06:58:00.274Z,13.6
2024-05-09T07:03:06.613Z,13.9
2024-05-09T07:08:13.058Z,14.3
2024-05-09T07:13:19.577Z,15
2024-05-09T07:18:25.946Z,15.1
2024-05-09T07:23:32.513Z,15.2
2024-05-09T07:28:38.967Z,15.2
2024-05-09T07:33:45.530Z,15.3
2024-05-09T07:38:52.238Z,15.6
2024-05-09T07:43:58.930Z,15.7
2024-05-09T07:49:05.629Z,15.6
2024-05-09T07:54:12.348Z,15.5
2024-05-09T07:59:19.067Z,15.6
2024-05-09T08:04:25.843Z,15.8
2024-05-09T08:09:32.496Z,16
2024-05-09T08:14:39.201Z,16.1
2024-05-09T08:19:45.935Z,16.1
2024-05-09T08:24:52.626Z,16.7
2024-05-09T08:29:59.371Z,16.7
2024-05-09T08:35:06.088Z,16.6
2024-05-09T08:40:13.504Z,16.8
2024-05-09T08:45:19.344Z,17.1
2024-05-09T08:50:25.638Z,16.9
2024-05-09T08:55:31.971Z,16.8
2024-05-09T09:00:38.265Z,17.1
2024-05-09T09:05:44.763Z,17.2
2024-05-09T09:10:50.982Z,17.2
2024-05-09T09:15:57.246Z,17.4
2024-05-09T09:21:03.539Z,17.7
2024-05-09T09:26:09.836Z,17.9
2024-05-09T09:31:16.157Z,17.8
2024-05-09T09:36:22.484Z,17.6
2024-05-09T09:41:28.794Z,18.3
2024-05-09T09:46:35.085Z,18.2
2024-05-09T09:51:41.855Z,18.5
2024-05-09T09:56:47.733Z,18.4
2024-05-09T10:01:54.049Z,18.7
2024-05-09T10:07:00.366Z,18.7
2024-05-09T10:12:06.717Z,18.1
2024-05-09T10:17:12.999Z,17.9
2024-05-09T10:22:19.394Z,18.4
2024-05-09T10:27:25.691Z,18.8
2024-05-09T10:32:32.030Z,19.1
2024-05-09T10:37:38.323Z,19
2024-05-09T10:42:44.567Z,18.9
2024-05-09T11:03:10.228Z,19.6
2024-05-09T11:08:16.686Z,19.6
2024-05-09T11:13:23.127Z,19.5
2024-05-09T11:18:29.584Z,19.9
2024-05-09T11:23:36.023Z,19.7
2024-05-09T11:28:43.172Z,19.6
2024-05-09T11:33:48.950Z,19.9
2024-05-09T11:38:55.372Z,19.8
2024-05-09T11:44:01.808Z,20
2024-05-09T11:49:08.257Z,20.1
2024-05-09T11:54:14.711Z,20.2
2024-05-09T11:59:21.422Z,20.1
2024-05-09T12:04:28.120Z,20.3
2024-05-09T12:09:34.827Z,20.1
2024-05-09T12:14:41.557Z,20.3
2024-05-09T12:19:48.291Z,20.7
2024-05-09T12:24:55.012Z,20.9
2024-05-09T12:30:01.717Z,20.8
2024-05-09T12:35:08.458Z,20.9
2024-05-09T12:40:15.134Z,21.4
2024-05-09T12:45:21.859Z,21.3
2024-05-09T12:50:28.575Z,21.6
2024-05-09T12:55:35.306Z,21.6
2024-05-09T13:00:42.059Z,22
2024-05-09T13:05:49.451Z,22.2
2024-05-09T13:10:56.863Z,22.3
2024-05-09T13:16:04.087Z,22
2024-05-09T13:21:09.919Z,22
2024-05-09T13:26:16.146Z,22.1
2024-05-09T13:31:22.454Z,21.8
2024-05-09T13:36:28.729Z,22.3
2024-05-09T13:41:35.044Z,22.9
2024-05-09T13:46:41.375Z,23.4
2024-05-09T13:51:47.676Z,22.7
2024-05-09T13:56:53.948Z,22.6
2024-05-09T14:02:00.242Z,22.9
2024-05-09T14:07:06.530Z,21.6
2024-05-09T14:12:12.821Z,20.6
2024-05-09T14:17:19.152Z,20.3
2024-05-09T14:22:25.450Z,20.6
2024-05-09T14:27:31.766Z,20.7
2024-05-09T14:32:38.088Z,20.6
2024-05-09T14:37:44.374Z,20.1
2024-05-09T14:42:50.675Z,20.2
2024-05-09T14:47:56.994Z,20.1
2024-05-09T14:53:03.283Z,20.3
2024-05-09T14:58:09.587Z,20.5
2024-05-09T15:03:15.876Z,21.6
2024-05-09T15:08:22.157Z,21.9
2024-05-09T15:13:28.462Z,20.7
2024-05-09T15:18:34.917Z,19.7
2024-05-09T15:23:41.057Z,19.3
2024-05-09T15:28:47.505Z,19.3
2024-05-09T15:33:53.988Z,19.2
2024-05-09T15:39:00.388Z,19
2024-05-09T15:44:08.010Z,18.4
2024-05-09T15:49:13.241Z,18.5
2024-05-09T15:54:19.654Z,18.7
2024-05-09T15:59:26.071Z,18.8
2024-05-09T16:04:32.592Z,18.5
2024-05-09T16:09:38.961Z,18.3
2024-05-09T16:14:45.470Z,18.4
2024-05-09T16:19:51.909Z,18.2
2024-05-09T16:24:58.267Z,18.1
2024-05-09T16:30:04.670Z,17.9
2024-05-09T16:35:11.373Z,17.9
2024-05-09T16:40:18.079Z,17.8
2024-05-09T16:45:24.748Z,17.7
2024-05-09T16:50:31.442Z,17.5
2024-05-09T16:55:38.114Z,17.5
2024-05-09T17:00:44.833Z,17.4
2024-05-09T17:05:51.562Z,17.4
2024-05-09T17:10:58.273Z,17.1
2024-05-09T17:16:05.009Z,16.9
2024-05-09T17:21:11.726Z,16.6
2024-05-09T17:26:18.452Z,16.5
2024-05-09T17:31:25.216Z,16.3
2024-05-09T17:36:31.983Z,16.1
2024-05-09T17:41:39.194Z,15.9
2024-05-09T17:46:46.563Z,15.7
2024-05-09T17:51:53.843Z,15.5
2024-05-09T17:57:01.218Z,15.2
2024-05-09T18:02:08.495Z,14.9
2024-05-09T18:07:15.833Z,14.7
2024-05-09T18:12:23.134Z,14.5
2024-05-09T18:17:29.139Z,14.1
2024-05-09T18:22:35.410Z,13.9
2024-05-09T18:27:41.654Z,13.7
2024-05-09T18:32:47.946Z,13.4
2024-05-09T18:37:54.344Z,13.3
2024-05-09T18:43:00.549Z,13
2024-05-09T18:48:06.871Z,12.9
2024-05-09T18:53:13.296Z,12.7
2024-05-09T18:58:19.567Z,12.5
2024-05-09T19:03:25.945Z,12.3
2024-05-09T19:08:32.254Z,12.2
2024-05-09T19:13:38.539Z,12
2024-05-09T19:18:44.931Z,11.9
2024-05-09T19:23:52.344Z,11.8
2024-05-09T19:28:57.412Z,11.7
2024-05-09T19:34:03.852Z,11.6
2024-05-09T19:39:09.980Z,11.5
2024-05-09T19:44:16.305Z,11.5
2024-05-09T19:49:22.611Z,11.4
2024-05-09T19:54:28.981Z,11.3
2024-05-09T19:59:35.216Z,11.3
2024-05-09T20:04:41.537Z,11.3
2024-05-09T20:09:47.857Z,11.2
2024-05-09T20:14:54.209Z,11.1
2024-05-09T20:20:00.502Z,11
2024-05-09T20:25:07.007Z,11
2024-05-09T20:30:13.382Z,10.9
2024-05-09T20:35:19.859Z,10.9
2024-05-09T20:40:26.284Z,10.8
2024-05-09T20:45:32.778Z,10.7
2024-05-09T20:50:39.170Z,10.6
2024-05-09T20:55:45.626Z,10.6
2024-05-09T21:00:52.032Z,10.6
2024-05-09T21:05:58.737Z,10.6
2024-05-09T21:11:05.189Z,10.6
2024-05-09T21:16:11.341Z,10.5
2024-05-09T21:21:17.847Z,10.5
2024-05-09T21:26:24.386Z,10.5
2024-05-09T21:31:30.944Z,10.4
2024-05-09T21:36:37.633Z,10.3
2024-05-09T21:41:44.503Z,10.3
2024-05-09T21:46:50.999Z,10.2
2024-05-09T21:51:57.746Z,10.2
2024-05-09T21:57:04.387Z,10.2
2024-05-09T22:02:11.197Z,10.2
2024-05-09T22:07:17.773Z,10.1
2024-05-09T22:12:24.466Z,10
2024-05-09T22:17:31.289Z,9.9
2024-05-09T22:22:38.018Z,9.9
2024-05-09T22:27:44.620Z,9.8
2024-05-09T22:32:51.292Z,9.8
2024-05-09T22:37:58.782Z,9.8
2024-05-09T22:43:05.928Z,9.8
2024-05-09T22:48:11.830Z,9.8
2024-05-09T22:53:18.151Z,9.8
2024-05-09T22:58:24.558Z,9.7
2024-05-09T23:03:30.820Z,9.7
2024-05-09T23:08:37.048Z,9.7
2024-05-09T23:13:43.632Z,9.7
2024-05-09T23:18:49.899Z,9.6
2024-05-09T23:23:55.937Z,9.6
2024-05-09T23:29:02.227Z,9.7
2024-05-09T23:34:08.547Z,9.7
2024-05-09T23:39:16.101Z,9.8
2024-05-09T23:44:21.166Z,9.8
2024-05-09T23:49:27.572Z,9.8
2024-05-09T23:54:33.777Z,9.8
2024-05-09T23:59:40.113Z,9.7
